Osnabrock, North Dakota
Current Conditions -  °F | °C
As of 12:55 PM on Friday 24 Oct 2014 (Local Time) from KD55 Reporting Station
Clear Clear  
Wind Chill: 68°   Ceiling: Unl
Heat Index: 68°   Visibility: 10mi
Dew Point: 39°   Wind: 25mph
Humidity: 35%   Direction: 280°W
Pressure: 29.74"   Gusts: 33mph
Location:  48.67°N, 98.15°W
Report Text: KD55 241755Z AUTO 28022G29KT 10SM CLR 20/04 A2974 RMK AO2
Loading
Personal Weather Stations






























Interactive Weather Map
Tropical Storm Tracking
New forecast layout! Learn more

10-Day Weather Forecast

Advertisements
Track Severe Weather on mobile